createdAt,value
2023-02-27T00:00:33.494Z,95.66
2023-02-27T00:01:32.498Z,96.04
2023-02-27T00:02:32.603Z,96.32
2023-02-27T00:03:32.550Z,96.21
2023-02-27T00:04:32.468Z,96.32
2023-02-27T00:05:33.360Z,95.77
2023-02-27T00:06:32.437Z,96.60
2023-02-27T00:07:32.440Z,96.32
2023-02-27T00:08:32.434Z,95.77
2023-02-27T00:09:32.380Z,95.99
2023-02-27T00:10:32.474Z,95.66
2023-02-27T00:11:33.292Z,95.71
2023-02-27T00:12:32.352Z,95.88
2023-02-27T00:13:32.496Z,96.04
2023-02-27T00:14:32.304Z,95.77
2023-02-27T00:15:32.330Z,95.99
2023-02-27T00:16:33.233Z,96.10
2023-02-27T00:17:32.309Z,96.04
2023-02-27T00:18:32.286Z,95.93
2023-02-27T00:19:32.258Z,96.43
2023-02-27T00:20:32.272Z,96.43
2023-02-27T00:21:34.705Z,96.93
2023-02-27T00:22:32.227Z,96.04
2023-02-27T00:23:32.256Z,96.10
2023-02-27T00:24:32.210Z,96.32
2023-02-27T00:25:32.176Z,96.21
2023-02-27T00:26:33.193Z,96.93
2023-02-27T00:27:32.178Z,96.15
2023-02-27T00:28:32.220Z,96.43
2023-02-27T00:29:32.136Z,96.38
2023-02-27T00:30:32.170Z,96.38
2023-02-27T00:31:32.158Z,96.88
2023-02-27T00:32:33.130Z,96.21
2023-02-27T00:33:32.122Z,96.10
2023-02-27T00:34:32.093Z,97.33
2023-02-27T00:35:32.035Z,96.38
2023-02-27T00:36:32.088Z,96.65
2023-02-27T00:37:32.979Z,96.88
2023-02-27T00:38:32.007Z,96.99
2023-02-27T00:39:32.018Z,96.21
2023-02-27T00:40:31.988Z,96.26
2023-02-27T00:41:31.989Z,96.99
2023-02-27T00:42:32.978Z,96.76
2023-02-27T00:43:31.969Z,96.54
2023-02-27T00:44:32.016Z,96.88
2023-02-27T00:45:31.950Z,97.33
2023-02-27T00:46:31.955Z,97.27
2023-02-27T00:47:32.808Z,96.99
2023-02-27T00:48:31.910Z,97.16
2023-02-27T00:49:31.880Z,96.88
2023-02-27T00:50:31.843Z,96.60
2023-02-27T00:51:31.862Z,96.43
2023-02-27T00:52:31.844Z,96.54
2023-02-27T00:53:32.765Z,96.82
2023-02-27T00:54:31.809Z,97.16
2023-02-27T00:55:31.816Z,96.54
2023-02-27T00:56:31.779Z,96.88
2023-02-27T00:57:31.817Z,97.10
2023-02-27T00:58:32.677Z,96.88
2023-02-27T00:59:31.831Z,96.88
2023-02-27T01:00:31.765Z,96.54
2023-02-27T01:01:31.723Z,97.44
2023-02-27T01:02:31.794Z,96.71
2023-02-27T01:03:31.708Z,96.88
2023-02-27T01:04:32.607Z,97.33
2023-02-27T01:05:31.685Z,96.93
2023-02-27T01:06:31.651Z,96.76
2023-02-27T01:07:31.642Z,96.93
2023-02-27T01:08:31.652Z,96.99
2023-02-27T01:09:32.566Z,96.88
2023-02-27T01:10:31.647Z,97.10
2023-02-27T01:11:31.591Z,96.82
2023-02-27T01:12:31.632Z,96.88
2023-02-27T01:13:31.576Z,96.88
2023-02-27T01:14:31.558Z,97.04
2023-02-27T01:15:32.476Z,97.21
2023-02-27T01:16:31.571Z,96.71
2023-02-27T01:17:31.534Z,97.04
2023-02-27T01:18:31.589Z,97.16
2023-02-27T01:19:31.543Z,97.10
2023-02-27T01:20:32.409Z,97.21
2023-02-27T01:21:31.456Z,97.16
2023-02-27T01:22:31.513Z,97.33
2023-02-27T01:23:31.443Z,97.27
2023-02-27T01:24:31.448Z,97.50
2023-02-27T01:25:32.341Z,97.55
2023-02-27T01:26:31.412Z,97.50
2023-02-27T01:27:31.400Z,97.50
2023-02-27T01:28:31.387Z,97.21
2023-02-27T01:29:31.361Z,97.67
2023-02-27T01:30:31.437Z,97.67
2023-02-27T01:31:32.270Z,97.78
2023-02-27T01:32:31.343Z,97.44
2023-02-27T01:33:31.309Z,98.01
2023-02-27T01:34:33.897Z,98.18
2023-02-27T01:35:31.291Z,97.44
2023-02-27T01:36:31.286Z,98.30
2023-02-27T01:37:32.180Z,98.47
2023-02-27T01:38:31.261Z,98.41
2023-02-27T01:39:31.236Z,98.47
2023-02-27T01:40:31.238Z,98.53
2023-02-27T01:41:31.208Z,98.59
2023-02-27T01:42:31.189Z,98.41
2023-02-27T01:43:32.123Z,98.36
2023-02-27T01:44:31.191Z,98.64
2023-02-27T01:45:31.231Z,98.36
2023-02-27T01:46:31.142Z,98.36
2023-02-27T01:47:31.164Z,98.94
2023-02-27T01:48:31.106Z,98.94
2023-02-27T01:49:32.017Z,99.00
2023-02-27T01:50:31.153Z,98.70
2023-02-27T01:51:31.068Z,99.05
2023-02-27T01:52:31.118Z,99.05
2023-02-27T01:53:31.076Z,99.41
2023-02-27T01:54:31.023Z,99.29
2023-02-27T01:55:31.961Z,99.11
2023-02-27T01:56:31.047Z,99.41
2023-02-27T01:57:31.009Z,98.70
2023-02-27T01:58:30.971Z,99.05
2023-02-27T01:59:30.980Z,99.29
2023-02-27T02:00:31.953Z,99.00
2023-02-27T02:01:30.968Z,99.11
2023-02-27T02:02:31.001Z,98.64
2023-02-27T02:03:30.928Z,99.29
2023-02-27T02:04:30.916Z,99.29
2023-02-27T02:05:31.842Z,99.11
2023-02-27T02:06:30.930Z,98.94
2023-02-27T02:07:30.873Z,99.05
2023-02-27T02:08:30.877Z,99.82
2023-02-27T02:09:30.874Z,98.76
2023-02-27T02:10:31.765Z,99.35
2023-02-27T02:11:30.811Z,98.94
2023-02-27T02:12:30.799Z,99.52
2023-02-27T02:13:30.814Z,99.17
2023-02-27T02:14:30.767Z,99.35
2023-02-27T02:15:31.703Z,99.23
2023-02-27T02:16:30.894Z,98.82
2023-02-27T02:17:30.756Z,99.11
2023-02-27T02:18:30.730Z,99.29
2023-02-27T02:19:30.705Z,99.41
2023-02-27T02:20:31.629Z,99.41
2023-02-27T02:21:30.717Z,99.35
2023-02-27T02:22:30.682Z,99.41
2023-02-27T02:23:30.717Z,99.46
2023-02-27T02:24:30.659Z,99.23
2023-02-27T02:25:30.627Z,99.35
2023-02-27T02:26:33.580Z,99.52
2023-02-27T02:27:30.633Z,99.58
2023-02-27T02:28:30.611Z,99.70
2023-02-27T02:29:30.585Z,99.52
2023-02-27T02:30:30.675Z,99.35
2023-02-27T02:31:31.943Z,99.88
2023-02-27T02:32:30.555Z,99.52
2023-02-27T02:33:30.580Z,99.52
2023-02-27T02:34:30.547Z,99.64
2023-02-27T02:35:30.501Z,100.00
2023-02-27T02:36:30.538Z,99.82
2023-02-27T02:37:31.496Z,99.52
2023-02-27T02:38:30.504Z,100.00
2023-02-27T02:39:30.465Z,99.82
2023-02-27T02:40:30.446Z,100.48
2023-02-27T02:41:30.461Z,100.12
2023-02-27T02:42:30.464Z,100.18
2023-02-27T02:43:31.351Z,100.48
2023-02-27T02:44:30.409Z,100.84
2023-02-27T02:45:30.385Z,100.12
2023-02-27T02:46:30.378Z,99.82
2023-02-27T02:47:30.405Z,99.88
2023-02-27T02:48:31.277Z,100.00
2023-02-27T02:49:30.357Z,100.24
2023-02-27T02:50:30.324Z,100.48
2023-02-27T02:51:30.323Z,99.70
2023-02-27T02:52:30.327Z,100.60
2023-02-27T02:53:37.116Z,100.30
2023-02-27T02:54:31.763Z,100.18
2023-02-27T02:55:30.286Z,100.18
2023-02-27T02:56:30.263Z,100.66
2023-02-27T02:57:30.261Z,100.48
2023-02-27T02:58:30.224Z,100.36
2023-02-27T02:59:31.155Z,100.00
2023-02-27T03:00:30.205Z,100.54
2023-02-27T03:01:30.418Z,100.18
2023-02-27T03:02:30.197Z,100.48
2023-02-27T03:03:30.178Z,100.06
2023-02-27T03:04:31.179Z,100.60
2023-02-27T03:05:30.171Z,100.06
2023-02-27T03:06:30.157Z,100.30
2023-02-27T03:07:30.195Z,100.36
2023-02-27T03:08:30.114Z,100.72
2023-02-27T03:09:31.013Z,100.54
2023-02-27T03:10:30.072Z,100.78
2023-02-27T03:11:30.094Z,100.66
2023-02-27T03:12:30.042Z,100.06
2023-02-27T03:13:30.053Z,100.30
2023-02-27T03:14:30.040Z,100.96
2023-02-27T03:15:31.027Z,101.33
2023-02-27T03:16:29.989Z,100.78
2023-02-27T03:17:30.002Z,100.72
2023-02-27T03:18:29.976Z,101.03
2023-02-27T03:19:29.994Z,101.09
2023-02-27T03:20:30.881Z,101.09
2023-02-27T03:21:29.963Z,101.58
2023-02-27T03:22:29.910Z,100.66
2023-02-27T03:23:29.887Z,101.27
2023-02-27T03:24:29.893Z,102.01
2023-02-27T03:25:29.894Z,101.58
2023-02-27T03:26:30.818Z,101.09
2023-02-27T03:27:29.856Z,100.90
2023-02-27T03:28:29.916Z,101.03
2023-02-27T03:29:29.823Z,101.15
2023-02-27T03:30:29.911Z,101.33
2023-02-27T03:31:30.165Z,101.45
2023-02-27T03:32:30.779Z,101.82
2023-02-27T03:33:29.818Z,101.21
2023-02-27T03:34:29.795Z,101.45
2023-02-27T03:35:29.758Z,101.45
2023-02-27T03:36:29.779Z,101.03
2023-02-27T03:37:30.718Z,101.03
2023-02-27T03:38:29.721Z,101.33
2023-02-27T03:39:29.702Z,101.33
2023-02-27T03:40:29.695Z,101.51
2023-02-27T03:41:29.795Z,101.33
2023-02-27T03:42:29.669Z,101.45
2023-02-27T03:43:30.650Z,101.45
2023-02-27T03:44:29.675Z,101.03
2023-02-27T03:45:29.628Z,101.39
2023-02-27T03:46:29.703Z,101.21
2023-02-27T03:47:29.599Z,100.96
2023-02-27T03:48:30.530Z,101.39
2023-02-27T03:49:29.566Z,101.09
2023-02-27T03:50:29.579Z,101.51
2023-02-27T03:51:29.804Z,101.03
2023-02-27T03:52:29.537Z,101.21
2023-02-27T03:53:30.454Z,101.70
2023-02-27T03:54:29.495Z,100.84
2023-02-27T03:55:29.576Z,101.09
2023-02-27T03:56:29.525Z,100.78
2023-02-27T03:57:29.476Z,101.58
2023-02-27T03:58:29.469Z,101.45
2023-02-27T03:59:30.511Z,101.21
2023-02-27T04:00:29.447Z,101.45
2023-02-27T04:01:29.706Z,101.39
2023-02-27T04:02:29.445Z,101.33
2023-02-27T04:03:29.412Z,101.21
2023-02-27T04:04:29.434Z,100.72
2023-02-27T04:05:30.310Z,101.27
2023-02-27T04:06:29.346Z,101.33
2023-02-27T04:07:29.355Z,101.58
2023-02-27T04:08:29.439Z,101.82
2023-02-27T04:09:29.382Z,100.96
2023-02-27T04:10:30.258Z,100.96
2023-02-27T04:11:29.609Z,100.90
2023-02-27T04:12:29.334Z,100.78
2023-02-27T04:13:29.387Z,101.03
2023-02-27T04:14:29.301Z,100.60
2023-02-27T04:15:30.255Z,101.27
2023-02-27T04:16:29.244Z,100.84
2023-02-27T04:17:29.236Z,101.82
2023-02-27T04:18:29.305Z,101.21
2023-02-27T04:19:29.214Z,100.72
2023-02-27T04:20:30.121Z,100.84
2023-02-27T04:21:29.503Z,100.90
2023-02-27T04:22:29.174Z,101.33
2023-02-27T04:23:29.151Z,100.90
2023-02-27T04:24:29.132Z,101.21
2023-02-27T04:25:29.121Z,101.51
2023-02-27T04:26:30.030Z,101.15
2023-02-27T04:27:29.091Z,101.15
2023-02-27T04:28:29.116Z,100.78
2023-02-27T04:29:29.085Z,101.15
2023-02-27T04:30:29.045Z,100.78
2023-02-27T04:31:29.527Z,101.58
2023-02-27T04:32:30.145Z,100.90
2023-02-27T04:33:29.021Z,101.09
2023-02-27T04:34:29.038Z,101.70
2023-02-27T04:35:29.130Z,101.15
2023-02-27T04:36:28.997Z,100.84
2023-02-27T04:37:29.898Z,101.03
2023-02-27T04:38:29.001Z,100.30
2023-02-27T04:39:28.955Z,101.15
2023-02-27T04:40:29.010Z,101.15
2023-02-27T04:41:29.171Z,101.21
2023-02-27T04:42:28.898Z,101.64
2023-02-27T04:43:29.828Z,101.45
2023-02-27T04:44:28.900Z,101.09
2023-02-27T04:45:29.021Z,100.72
2023-02-27T04:46:28.857Z,101.33
2023-02-27T04:47:28.852Z,101.45
2023-02-27T04:48:29.779Z,100.96
2023-02-27T04:49:28.825Z,101.09
2023-02-27T04:50:28.835Z,101.45
2023-02-27T04:51:29.004Z,101.45
2023-02-27T04:52:29.776Z,101.33
2023-02-27T04:53:28.783Z,101.27
2023-02-27T04:54:29.690Z,101.70
2023-02-27T04:55:28.759Z,101.27
2023-02-27T04:56:28.745Z,101.39
2023-02-27T04:57:28.735Z,101.95
2023-02-27T04:58:28.695Z,101.45
2023-02-27T04:59:29.633Z,101.95
2023-02-27T05:00:28.713Z,101.33
2023-02-27T05:01:29.015Z,101.33
2023-02-27T05:02:28.774Z,101.21
2023-02-27T05:03:28.643Z,101.95
2023-02-27T05:04:28.673Z,101.33
2023-02-27T05:05:29.545Z,101.03
2023-02-27T05:06:28.618Z,101.15
2023-02-27T05:07:28.624Z,101.64
2023-02-27T05:08:28.586Z,102.13
2023-02-27T05:09:28.564Z,101.89
2023-02-27T05:10:29.495Z,100.84
2023-02-27T05:11:28.787Z,101.95
2023-02-27T05:12:28.521Z,101.15
2023-02-27T05:13:28.508Z,101.95
2023-02-27T05:14:28.505Z,101.76
2023-02-27T05:15:29.471Z,101.27
2023-02-27T05:16:28.592Z,101.70
2023-02-27T05:17:28.485Z,101.33
2023-02-27T05:18:28.465Z,102.13
2023-02-27T05:19:28.441Z,102.32
2023-02-27T05:20:29.911Z,101.89
2023-02-27T05:21:28.800Z,102.38
2023-02-27T05:22:28.388Z,102.45
2023-02-27T05:23:28.391Z,102.38
2023-02-27T05:24:28.366Z,102.51
2023-02-27T05:25:29.324Z,102.32
2023-02-27T05:26:28.339Z,102.20
2023-02-27T05:27:28.392Z,102.51
2023-02-27T05:28:28.331Z,102.45
2023-02-27T05:29:28.317Z,102.45
2023-02-27T05:30:28.328Z,102.95
2023-02-27T05:31:29.484Z,102.07
2023-02-27T05:32:28.288Z,102.76
2023-02-27T05:33:28.254Z,101.95
2023-02-27T05:34:28.314Z,102.01
2023-02-27T05:35:29.336Z,102.95
2023-02-27T05:36:29.158Z,102.89
2023-02-27T05:37:28.234Z,102.82
2023-02-27T05:38:28.188Z,103.14
2023-02-27T05:39:28.188Z,103.27
2023-02-27T05:40:28.173Z,103.20
2023-02-27T05:41:29.296Z,102.57
2023-02-27T05:42:28.189Z,103.65
2023-02-27T05:43:28.162Z,103.33
2023-02-27T05:44:28.125Z,102.63
2023-02-27T05:45:28.132Z,103.08
2023-02-27T05:46:28.112Z,103.71
2023-02-27T05:47:29.036Z,103.59
2023-02-27T05:48:28.106Z,102.95
2023-02-27T05:49:28.066Z,103.91
2023-02-27T05:50:28.030Z,103.71
2023-02-27T05:51:28.369Z,103.71
2023-02-27T05:52:28.007Z,103.59
2023-02-27T05:53:28.948Z,104.30
2023-02-27T05:54:27.989Z,103.20
2023-02-27T05:55:27.968Z,103.78
2023-02-27T05:56:28.230Z,104.17
2023-02-27T05:57:27.945Z,103.91
2023-02-27T05:58:28.894Z,103.20
2023-02-27T05:59:27.910Z,103.91
2023-02-27T06:00:27.922Z,103.78
2023-02-27T06:01:27.900Z,103.33
2023-02-27T06:02:28.008Z,103.46
2023-02-27T06:03:28.022Z,104.17
2023-02-27T06:04:28.803Z,104.17
2023-02-27T06:05:27.865Z,103.78
2023-02-27T06:06:28.087Z,103.46
2023-02-27T06:07:27.837Z,104.23
2023-02-27T06:08:27.851Z,103.46
2023-02-27T06:09:28.742Z,104.10
2023-02-27T06:10:27.799Z,103.46
2023-02-27T06:11:27.827Z,103.91
2023-02-27T06:12:27.766Z,104.10
2023-02-27T06:13:27.748Z,104.10
2023-02-27T06:14:28.675Z,104.49
2023-02-27T06:15:27.744Z,103.84
2023-02-27T06:16:28.049Z,104.36
2023-02-27T06:17:27.745Z,103.46
2023-02-27T06:18:29.445Z,103.52
2023-02-27T06:19:27.669Z,104.36
2023-02-27T06:20:28.611Z,104.30
2023-02-27T06:21:27.650Z,104.43
2023-02-27T06:22:27.690Z,104.49
2023-02-27T06:23:27.659Z,104.75
2023-02-27T06:24:27.621Z,104.36
2023-02-27T06:25:27.612Z,104.49
2023-02-27T06:26:28.771Z,104.23
2023-02-27T06:27:27.590Z,104.23
2023-02-27T06:28:27.575Z,104.30
2023-02-27T06:29:27.573Z,104.95
2023-02-27T06:30:27.537Z,104.95
2023-02-27T06:31:28.467Z,104.36
2023-02-27T06:32:27.551Z,104.36
2023-02-27T06:33:27.494Z,104.56
2023-02-27T06:34:27.517Z,105.28
2023-02-27T06:35:27.474Z,105.15
2023-02-27T06:36:27.719Z,104.49
2023-02-27T06:37:28.391Z,104.30
2023-02-27T06:38:27.499Z,105.21
2023-02-27T06:39:27.514Z,104.95
2023-02-27T06:40:27.391Z,104.17
2023-02-27T06:41:27.391Z,104.36
2023-02-27T06:42:27.384Z,105.01
2023-02-27T06:43:28.336Z,104.75
2023-02-27T06:44:27.379Z,104.62
2023-02-27T06:45:27.343Z,104.69
2023-02-27T06:46:27.586Z,104.43
2023-02-27T06:47:27.314Z,104.23
2023-02-27T06:48:27.323Z,104.23
2023-02-27T06:49:28.259Z,104.30
2023-02-27T06:50:27.319Z,103.78
2023-02-27T06:51:27.280Z,103.91
2023-02-27T06:52:27.258Z,103.78
2023-02-27T06:53:27.240Z,103.78
2023-02-27T06:54:27.270Z,103.27
2023-02-27T06:55:28.153Z,103.91
2023-02-27T06:56:27.443Z,103.59
2023-02-27T06:57:27.200Z,103.78
2023-02-27T06:58:27.188Z,103.33
2023-02-27T06:59:27.186Z,103.33
2023-02-27T07:00:27.144Z,103.08
2023-02-27T07:01:28.154Z,102.82
2023-02-27T07:02:27.142Z,102.57
2023-02-27T07:03:27.125Z,102.45
2023-02-27T07:04:27.210Z,102.76
2023-02-27T07:05:27.085Z,102.45
2023-02-27T07:07:32.528Z,102.32
2023-02-27T07:07:35.354Z,101.95
2023-02-27T07:08:28.546Z,102.38
2023-02-27T07:09:27.065Z,101.82
2023-02-27T07:10:27.089Z,101.27
2023-02-27T07:11:27.018Z,101.27
2023-02-27T07:12:27.928Z,101.58
2023-02-27T07:13:26.998Z,100.96
2023-02-27T07:14:27.005Z,101.09
2023-02-27T07:15:26.994Z,101.21
2023-02-27T07:16:27.295Z,101.21
2023-02-27T07:17:26.997Z,100.48
2023-02-27T07:18:27.860Z,100.78
2023-02-27T07:19:26.940Z,100.60
2023-02-27T07:20:26.907Z,100.36
2023-02-27T07:21:26.889Z,99.82
2023-02-27T07:22:26.873Z,99.88
2023-02-27T07:23:26.893Z,99.82
2023-02-27T07:24:27.817Z,99.52
2023-02-27T07:25:26.854Z,99.41
2023-02-27T07:26:27.106Z,99.64
2023-02-27T07:27:26.813Z,99.46
2023-02-27T07:28:26.808Z,98.94
2023-02-27T07:29:26.813Z,98.82
2023-02-27T07:30:27.692Z,98.64
2023-02-27T07:31:28.863Z,98.64
2023-02-27T07:32:26.772Z,97.78
2023-02-27T07:33:26.721Z,98.18
2023-02-27T07:34:26.711Z,97.78
2023-02-27T07:35:27.668Z,97.95
2023-02-27T07:36:27.013Z,97.33
2023-02-27T07:37:28.118Z,97.55
2023-02-27T07:38:26.685Z,97.84
2023-02-27T07:39:26.652Z,97.21
2023-02-27T07:40:27.669Z,97.72
2023-02-27T07:41:30.777Z,96.38
2023-02-27T07:42:26.654Z,97.10
2023-02-27T07:43:26.609Z,96.65
2023-02-27T07:44:26.604Z,96.99
2023-02-27T07:45:27.517Z,97.67
2023-02-27T07:46:26.832Z,95.99
2023-02-27T07:47:26.596Z,96.32
2023-02-27T07:48:26.535Z,97.04
2023-02-27T07:49:26.558Z,95.77
2023-02-27T07:50:27.535Z,95.55
2023-02-27T07:51:26.541Z,96.76
2023-02-27T07:52:26.507Z,95.55
2023-02-27T07:53:26.475Z,95.50
2023-02-27T07:54:26.461Z,95.88
2023-02-27T07:55:27.402Z,96.76
2023-02-27T07:56:26.818Z,95.33
2023-02-27T07:57:26.434Z,96.10
2023-02-27T07:58:26.416Z,95.01
2023-02-27T07:59:26.411Z,96.10
2023-02-27T08:00:27.343Z,95.12
2023-02-27T08:01:26.396Z,95.22
2023-02-27T08:02:26.388Z,95.99
2023-02-27T08:03:26.432Z,95.71
2023-02-27T08:04:26.409Z,94.53
2023-02-27T08:05:27.259Z,95.06
2023-02-27T08:06:26.530Z,93.73
2023-02-27T08:07:26.357Z,94.95
2023-02-27T08:08:26.289Z,94.53
2023-02-27T08:09:26.272Z,94.47
2023-02-27T08:10:27.210Z,94.37
2023-02-27T08:11:26.577Z,95.28
2023-02-27T08:12:26.277Z,94.21
2023-02-27T08:13:55.802Z,94.26
2023-02-27T08:14:27.247Z,93.68
2023-02-27T08:15:27.140Z,93.47
2023-02-27T08:16:26.744Z,95.68
2023-02-27T08:17:26.184Z,95.36
2023-02-27T08:18:26.150Z,95.14
2023-02-27T08:19:26.130Z,94.71
2023-02-27T08:20:27.130Z,94.71
2023-02-27T08:21:26.619Z,94.50
2023-02-27T08:22:26.133Z,93.75
2023-02-27T08:23:26.125Z,93.96
2023-02-27T08:24:26.122Z,93.55
2023-02-27T08:25:27.095Z,93.23
2023-02-27T08:26:26.435Z,93.44
2023-02-27T08:27:26.061Z,93.03
2023-02-27T08:28:26.017Z,93.23
2023-02-27T08:29:26.171Z,92.31
2023-02-27T08:30:26.964Z,92.41
2023-02-27T08:31:26.002Z,91.80
2023-02-27T08:32:26.049Z,92.00
2023-02-27T08:33:25.999Z,91.40
2023-02-27T08:34:26.008Z,91.20
2023-02-27T08:35:26.937Z,91.30
2023-02-27T08:36:26.156Z,91.00
2023-02-27T08:37:26.009Z,90.81
2023-02-27T08:38:26.544Z,90.61
2023-02-27T08:39:25.947Z,90.51
2023-02-27T08:40:25.913Z,90.03
2023-02-27T08:41:26.859Z,89.74
2023-02-27T08:42:26.999Z,89.26
2023-02-27T08:43:25.867Z,89.26
2023-02-27T08:44:25.893Z,88.69
2023-02-27T08:45:25.823Z,88.69
2023-02-27T08:46:26.395Z,88.50
2023-02-27T08:47:26.739Z,88.04
2023-02-27T08:48:25.776Z,87.58
2023-02-27T08:49:25.785Z,87.58
2023-02-27T08:50:25.752Z,87.31
2023-02-27T08:51:26.125Z,87.21
2023-02-27T08:52:25.721Z,86.85
2023-02-27T08:53:26.674Z,87.03
2023-02-27T08:54:25.717Z,86.67
2023-02-27T08:55:25.703Z,86.32
2023-02-27T08:56:26.032Z,86.40
2023-02-27T08:57:25.689Z,85.70
2023-02-27T08:58:26.649Z,85.96
2023-02-27T08:59:25.650Z,85.26
2023-02-27T09:00:25.708Z,85.17
2023-02-27T09:01:26.033Z,85.26
2023-02-27T09:02:25.699Z,84.57
2023-02-27T09:03:26.518Z,84.32
2023-02-27T09:04:25.594Z,83.89
2023-02-27T09:05:25.579Z,83.31
2023-02-27T09:06:26.453Z,82.98
2023-02-27T09:07:25.538Z,82.49
2023-02-27T09:08:25.552Z,82.17
2023-02-27T09:09:26.463Z,81.92
2023-02-27T09:10:25.492Z,81.61
2023-02-27T09:11:25.907Z,81.84
2023-02-27T09:12:25.485Z,81.37
2023-02-27T09:13:25.470Z,81.37
2023-02-27T09:14:26.439Z,80.82
2023-02-27T09:15:25.464Z,80.35
2023-02-27T09:16:25.673Z,80.04
2023-02-27T09:17:25.470Z,79.74
2023-02-27T09:18:25.396Z,79.44
2023-02-27T09:19:25.439Z,79.51
2023-02-27T09:20:26.324Z,79.74
2023-02-27T09:21:25.419Z,79.29
2023-02-27T09:22:25.351Z,79.21
2023-02-27T09:23:25.397Z,78.54
2023-02-27T09:24:25.339Z,78.69
2023-02-27T09:25:25.349Z,78.25
2023-02-27T09:26:39.998Z,78.10
2023-02-27T09:27:26.831Z,78.40
2023-02-27T09:28:25.381Z,77.96
2023-02-27T09:29:25.304Z,77.60
2023-02-27T09:30:25.232Z,77.38
2023-02-27T09:31:25.454Z,77.24
2023-02-27T09:32:26.337Z,77.03
2023-02-27T09:33:25.355Z,77.17
2023-02-27T09:34:25.225Z,76.96
2023-02-27T09:35:25.378Z,76.53
2023-02-27T09:36:25.515Z,75.84
2023-02-27T09:37:26.113Z,76.05
2023-02-27T09:38:25.209Z,75.98
2023-02-27T09:39:25.161Z,75.64
2023-02-27T09:40:25.120Z,75.64
2023-02-27T09:41:25.342Z,75.29
2023-02-27T09:42:26.013Z,75.43
2023-02-27T09:43:25.066Z,75.43
2023-02-27T09:44:36.440Z,75.03
2023-02-27T09:45:26.549Z,74.89
2023-02-27T09:46:25.475Z,75.09
2023-02-27T09:47:25.017Z,75.03
2023-02-27T09:48:25.964Z,74.76
2023-02-27T09:49:25.021Z,75.03
2023-02-27T09:50:25.000Z,74.29
2023-02-27T09:51:25.216Z,74.62
2023-02-27T09:52:24.975Z,74.16
2023-02-27T09:53:25.887Z,74.10
2023-02-27T09:54:24.942Z,74.29
2023-02-27T09:55:25.022Z,74.23
2023-02-27T09:56:25.205Z,74.36
2023-02-27T09:57:24.908Z,73.83
2023-02-27T09:58:24.890Z,73.77
2023-02-27T09:59:25.812Z,73.57
2023-02-27T10:00:24.861Z,73.71
2023-02-27T10:01:24.901Z,73.71
2023-02-27T10:02:24.896Z,73.57
2023-02-27T10:03:24.919Z,73.45
2023-02-27T10:04:24.797Z,73.06
2023-02-27T10:05:25.799Z,73.32
2023-02-27T10:06:24.871Z,73.51
2023-02-27T10:07:24.798Z,73.06
2023-02-27T10:08:24.780Z,73.13
2023-02-27T10:09:24.725Z,73.06
2023-02-27T10:10:24.799Z,72.56
2023-02-27T10:11:25.643Z,73.19
2023-02-27T10:12:24.701Z,72.68
2023-02-27T10:13:25.672Z,72.68
2023-02-27T10:14:24.753Z,73.00
2023-02-27T10:15:24.696Z,72.75
2023-02-27T10:16:25.958Z,72.62
2023-02-27T10:17:24.640Z,72.49
2023-02-27T10:18:28.380Z,72.56
2023-02-27T10:19:26.111Z,72.56
2023-02-27T10:20:24.639Z,72.56
2023-02-27T10:21:24.693Z,72.49
2023-02-27T10:22:25.524Z,72.31
2023-02-27T10:23:24.566Z,72.31
2023-02-27T10:24:24.564Z,72.56
2023-02-27T10:25:31.720Z,71.93
2023-02-27T10:26:26.060Z,72.31
2023-02-27T10:27:24.506Z,71.93
2023-02-27T10:28:25.452Z,71.56
2023-02-27T10:29:24.472Z,71.50
2023-02-27T10:30:29.861Z,71.02
2023-02-27T10:31:26.418Z,70.84
2023-02-27T10:32:24.484Z,70.54
2023-02-27T10:33:25.791Z,70.24
2023-02-27T10:34:25.350Z,69.78
2023-02-27T10:35:24.411Z,69.31
2023-02-27T10:36:33.665Z,68.97
2023-02-27T10:37:25.936Z,68.74
2023-02-27T10:38:24.363Z,68.52
2023-02-27T10:39:24.386Z,68.18
2023-02-27T10:40:25.250Z,67.91
2023-02-27T10:41:24.378Z,67.63
2023-02-27T10:42:24.325Z,67.42
2023-02-27T10:43:24.292Z,67.04
2023-02-27T10:44:24.345Z,67.53
2023-02-27T10:45:24.315Z,66.61
2023-02-27T10:46:25.352Z,66.45
2023-02-27T10:47:24.272Z,65.93
2023-02-27T10:48:24.262Z,65.47
2023-02-27T10:49:24.279Z,65.93
2023-02-27T10:50:24.199Z,65.72
2023-02-27T10:51:24.228Z,65.31
2023-02-27T10:52:25.255Z,64.81
2023-02-27T10:53:24.288Z,64.91
2023-02-27T10:54:24.300Z,64.51
2023-02-27T10:55:24.128Z,64.11
2023-02-27T10:56:24.166Z,63.87
2023-02-27T10:57:24.117Z,63.48
2023-02-27T10:58:25.038Z,63.53
2023-02-27T10:59:24.107Z,63.34
2023-02-27T11:00:24.077Z,62.91
2023-02-27T11:01:24.149Z,62.72
2023-02-27T11:02:24.046Z,62.72
2023-02-27T11:03:24.978Z,62.67
2023-02-27T11:04:24.080Z,62.67
2023-02-27T11:05:24.101Z,62.49
2023-02-27T11:06:24.007Z,62.35
2023-02-27T11:07:23.982Z,62.25
2023-02-27T11:08:24.897Z,62.02
2023-02-27T11:09:23.985Z,61.93
2023-02-27T11:10:23.959Z,61.43
2023-02-27T11:11:23.936Z,61.39
2023-02-27T11:12:23.950Z,61.21
2023-02-27T11:13:25.813Z,61.07
2023-02-27T11:14:23.908Z,60.90
2023-02-27T11:15:23.880Z,60.63
2023-02-27T11:16:23.893Z,60.90
2023-02-27T11:17:23.879Z,60.72
2023-02-27T11:18:24.785Z,60.72
2023-02-27T11:19:23.833Z,60.59
2023-02-27T11:20:23.822Z,60.63
2023-02-27T11:21:23.959Z,60.50
2023-02-27T11:22:23.794Z,60.99
2023-02-27T11:23:23.851Z,60.76
2023-02-27T11:24:24.751Z,61.03
2023-02-27T11:25:23.786Z,60.81
2023-02-27T11:26:23.775Z,60.99
2023-02-27T11:27:23.746Z,60.72
2023-02-27T11:28:23.721Z,60.90
2023-02-27T11:29:23.731Z,60.76
2023-02-27T11:30:24.641Z,60.41
2023-02-27T11:31:23.739Z,60.41
2023-02-27T11:32:23.724Z,60.15
2023-02-27T11:33:23.651Z,59.90
2023-02-27T11:34:23.671Z,59.47
2023-02-27T11:35:23.627Z,59.30
2023-02-27T11:36:24.614Z,59.05
2023-02-27T11:37:23.637Z,59.05
2023-02-27T11:38:23.584Z,58.55
2023-02-27T11:39:23.571Z,58.68
2023-02-27T11:40:23.573Z,58.60
2023-02-27T11:41:23.582Z,58.39
2023-02-27T11:42:24.505Z,58.35
2023-02-27T11:43:23.524Z,58.39
2023-02-27T11:44:34.107Z,58.31
2023-02-27T11:46:17.650Z,57.83
2023-02-27T11:46:46.890Z,58.07
2023-02-27T11:47:24.554Z,57.91
2023-02-27T11:48:24.393Z,57.99
2023-02-27T11:49:23.463Z,57.99
2023-02-27T11:50:23.485Z,57.79
2023-02-27T11:51:23.407Z,57.51
2023-02-27T11:52:23.403Z,57.35
2023-02-27T11:53:24.341Z,57.27
2023-02-27T11:54:23.384Z,57.12
2023-02-27T11:55:23.376Z,56.77
2023-02-27T11:56:23.344Z,56.73
2023-02-27T11:57:23.335Z,56.46
2023-02-27T11:58:23.314Z,56.20
2023-02-27T11:59:24.273Z,56.16
2023-02-27T12:00:23.283Z,55.67
2023-02-27T12:01:23.349Z,55.49
2023-02-27T12:02:23.573Z,55.38
2023-02-27T12:03:23.274Z,55.09
2023-02-27T12:04:24.180Z,54.91
2023-02-27T12:05:23.233Z,54.76
2023-02-27T12:06:23.210Z,54.55
2023-02-27T12:07:23.242Z,54.55
2023-02-27T12:08:23.236Z,54.69
2023-02-27T12:09:23.197Z,54.66
2023-02-27T12:10:24.143Z,55.05
2023-02-27T12:11:23.160Z,55.38
2023-02-27T12:12:23.151Z,55.67
2023-02-27T12:13:23.174Z,56.01
2023-02-27T12:14:23.117Z,56.16
2023-02-27T12:15:24.063Z,56.39
2023-02-27T12:16:23.141Z,56.85
2023-02-27T12:17:23.075Z,56.81
2023-02-27T12:18:23.104Z,57.27
2023-02-27T12:19:23.060Z,57.67
2023-02-27T12:20:23.978Z,58.07
2023-02-27T12:21:23.019Z,58.47
2023-02-27T12:22:23.036Z,58.97
2023-02-27T12:23:23.021Z,59.09
2023-02-27T12:24:22.993Z,59.72
2023-02-27T12:25:23.039Z,59.98
2023-02-27T12:26:23.916Z,60.41
2023-02-27T12:27:22.955Z,60.63
2023-02-27T12:28:22.981Z,60.85
2023-02-27T12:29:22.910Z,61.03
2023-02-27T12:30:22.903Z,61.25
2023-02-27T12:31:23.826Z,61.39
2023-02-27T12:32:22.900Z,61.48
2023-02-27T12:33:22.918Z,61.89
2023-02-27T12:34:22.850Z,62.21
2023-02-27T12:35:22.857Z,62.21
2023-02-27T12:36:22.858Z,62.39
2023-02-27T12:37:23.766Z,62.63
2023-02-27T12:38:22.816Z,62.77
2023-02-27T12:39:22.793Z,63.19
2023-02-27T12:40:22.781Z,63.24
2023-02-27T12:41:22.768Z,63.24
2023-02-27T12:42:22.737Z,62.77
2023-02-27T12:43:23.705Z,63.38